Sunny Bright — H8CD — position and weather

sailwx.info

Track history (hours):
 
Tides and Currents Weather Stations Pressure Air Temp Water Temp Dewpoint Dewpoint Depression Visibility Wind Speed Wind Dir Waves Ship Positions

Sunny Bright

Last reported at 2017-Nov-16 19:43 UTC. Time now 2017-Nov-21 10:09 UTC.
Position N 01°15' E 104°08'.

Length 230 m; beam 36.6 m.

Type: Tanker. MMSI: 356825000.

Date/timePositionNaut miles runAvg speedWind from/ knotsBaromVisibWave heightAir tempDewpointWater temp
2017-Nov-16 19:43N 01°15' E 104°08'311.6
2017-Nov-16 19:28N 01°15' E 104°05'4 9.4
2017-Nov-16 19:00N 01°14' E 104°01'3 6.2
2017-Nov-16 18:30N 01°14' E 103°58'611.2
2017-Nov-16 18:01N 01°11' E 103°52'612.1
2017-Nov-16 17:30N 01°09' E 103°47'612.2
2017-Nov-16 17:00N 01°05' E 103°43'611.4
2017-Nov-16 16:30N 01°03' E 103°37'714.1
2017-Nov-16 15:59N 01°07' E 103°31'714.3
2017-Nov-16 15:28N 01°11' E 103°24'612.3
2017-Nov-16 15:00N 01°15' E 103°20'  
Track history (hours):
 
Tides and Currents Weather Stations Pressure Air Temp Water Temp Dewpoint Dewpoint Depression Visibility Wind Speed Wind Dir Waves Ship Positions

Sunny Bright

Last reported at 2017-Nov-16 19:43 UTC. Time now 2017-Nov-21 10:09 UTC.
Position N 01°15' E 104°08'.

Length 230 m; beam 36.6 m.

Type: Tanker. MMSI: 356825000.

Date/timePositionNaut miles runAvg speedWind from/ knotsBaromVisibWave heightAir tempDewpointWater temp
2017-Nov-16 19:43N 01°15' E 104°08'311.6
2017-Nov-16 19:28N 01°15' E 104°05'4 9.4
2017-Nov-16 19:00N 01°14' E 104°01'3 6.2
2017-Nov-16 18:30N 01°14' E 103°58'611.2
2017-Nov-16 18:01N 01°11' E 103°52'612.1
2017-Nov-16 17:30N 01°09' E 103°47'612.2
2017-Nov-16 17:00N 01°05' E 103°43'611.4
2017-Nov-16 16:30N 01°03' E 103°37'714.1
2017-Nov-16 15:59N 01°07' E 103°31'714.3
2017-Nov-16 15:28N 01°11' E 103°24'612.3
2017-Nov-16 15:00N 01°15' E 103°20'  

Dump ship's entire track history